Time;durP1;ratioP1;P1;durP2;ratioP2;P2;SDS_P1;SDS_P2;PMS_P1;PMS_P2;Temp;Humidity;BMP_temperature;BMP_pressure;BME280_temperature;BME280_humidity;BME280_pressure;Samples;Min_cycle;Max_cycle;Signal;HPM_P1;HPM_P2
2021/01/18 00:02:05;;;;;;;53.47;27.97;;;2.30;99.90;;;;;;6162473;23;20435;-80
2021/01/18 00:04:35;;;;;;;42.77;25.60;;;2.30;99.90;;;;;;6162889;23;20416;-80
2021/01/18 00:07:05;;;;;;;47.20;25.40;;;2.40;99.90;;;;;;6162929;23;20446;-79
2021/01/18 00:09:33;;;;;;;41.27;24.97;;;2.40;99.90;;;;;;6162583;23;20469;-80
2021/01/18 00:12:00;;;;;;;38.63;22.27;;;2.40;99.90;;;;;;6162744;23;20527;-80
2021/01/18 00:14:27;;;;;;;35.17;21.60;;;2.40;99.90;;;;;;6199450;23;20732;-80
2021/01/18 00:16:55;;;;;;;39.67;21.93;;;2.50;99.90;;;;;;6199335;23;20402;-80
2021/01/18 00:19:22;;;;;;;39.70;21.30;;;2.50;99.90;;;;;;6162649;23;20975;-80
2021/01/18 00:21:49;;;;;;;37.60;20.53;;;2.60;99.90;;;;;;6164005;23;20419;-80
2021/01/18 00:24:19;;;;;;;42.53;19.17;;;2.60;99.90;;;;;;6200919;23;20406;-80
2021/01/18 00:26:48;;;;;;;43.63;20.07;;;2.70;99.90;;;;;;6165243;23;20855;-80
2021/01/18 00:29:16;;;;;;;28.00;19.57;;;2.60;99.90;;;;;;6165132;23;20459;-80
2021/01/18 00:31:44;;;;;;;37.40;19.20;;;2.70;99.90;;;;;;6201413;23;20782;-80
2021/01/18 00:34:11;;;;;;;29.00;17.47;;;2.70;99.90;;;;;;6201086;23;20435;-80
2021/01/18 00:36:45;;;;;;;37.17;19.40;;;2.70;99.90;;;;;;6165060;23;20407;-80
2021/01/18 00:39:12;;;;;;;32.40;19.70;;;2.70;99.90;;;;;;6165218;23;20938;-80
2021/01/18 00:41:41;;;;;;;35.90;18.47;;;2.70;99.90;;;;;;6164676;23;20522;-80
2021/01/18 00:44:09;;;;;;;27.47;19.30;;;2.80;99.90;;;;;;6164528;23;20450;-80
2021/01/18 00:46:37;;;;;;;29.40;18.90;;;2.80;99.90;;;;;;6165020;23;20449;-80
2021/01/18 00:49:05;;;;;;;28.77;17.20;;;2.80;99.90;;;;;;6164348;23;20460;-80
2021/01/18 00:51:37;;;;;;;27.90;19.30;;;2.80;99.90;;;;;;6164636;23;20423;-80
2021/01/18 00:54:06;;;;;;;30.13;16.93;;;2.80;99.90;;;;;;6164177;23;20418;-80
2021/01/18 00:56:39;;;;;;;30.10;19.10;;;2.80;99.90;;;;;;6165523;23;20474;-80
2021/01/18 00:59:16;;;;;;;26.43;17.17;;;2.80;99.90;;;;;;6165031;23;20531;-80
2021/01/18 01:01:50;;;;;;;26.37;17.97;;;2.80;99.90;;;;;;6164613;23;20415;-80
2021/01/18 01:04:19;;;;;;;26.80;17.83;;;2.80;99.90;;;;;;6165075;23;20427;-80
2021/01/18 01:06:46;;;;;;;23.33;16.00;;;2.90;99.90;;;;;;6164508;23;20417;-80
2021/01/18 01:09:14;;;;;;;24.67;16.90;;;2.90;99.90;;;;;;6164502;23;20485;-80
2021/01/18 01:11:45;;;;;;;23.50;15.30;;;2.90;99.90;;;;;;6165075;23;20427;-80
2021/01/18 01:14:12;;;;;;;21.70;16.23;;;2.90;99.90;;;;;;6200563;23;20407;-80
2021/01/18 01:16:42;;;;;;;22.70;15.83;;;2.90;99.90;;;;;;6165527;23;20494;-80
2021/01/18 01:19:10;;;;;;;24.07;16.20;;;2.90;99.90;;;;;;6165070;23;20436;-80
2021/01/18 01:21:37;;;;;;;23.63;15.23;;;2.90;99.90;;;;;;6165445;23;20782;-80
2021/01/18 01:24:06;;;;;;;17.40;13.73;;;2.90;99.90;;;;;;6165506;23;20419;-80
2021/01/18 01:26:33;;;;;;;24.40;15.67;;;2.90;99.90;;;;;;6165071;23;20424;-80
2021/01/18 01:29:00;;;;;;;27.70;15.20;;;2.90;99.90;;;;;;6165036;23;20749;-80
2021/01/18 01:31:27;;;;;;;28.53;16.67;;;2.90;99.90;;;;;;6165571;23;20488;-80
2021/01/18 01:33:55;;;;;;;28.57;16.87;;;2.90;99.90;;;;;;6165369;23;20420;-80
2021/01/18 01:36:23;;;;;;;20.93;16.03;;;2.90;99.90;;;;;;6201637;23;20404;-80
2021/01/18 01:38:50;;;;;;;25.30;15.20;;;2.90;99.90;;;;;;6165536;23;20938;-80
2021/01/18 01:41:17;;;;;;;24.77;16.40;;;3.00;99.90;;;;;;6201930;23;20399;-81
2021/01/18 01:43:45;;;;;;;27.87;15.80;;;3.00;99.90;;;;;;6164424;23;20406;-80
2021/01/18 01:46:12;;;;;;;29.10;16.47;;;3.00;99.90;;;;;;6165025;23;20415;-80
2021/01/18 01:48:40;;;;;;;25.60;14.23;;;3.00;99.90;;;;;;6165070;23;20456;-80
2021/01/18 01:51:08;;;;;;;25.37;14.13;;;3.00;99.90;;;;;;6165495;23;20407;-80
2021/01/18 01:53:37;;;;;;;26.17;14.47;;;3.10;99.90;;;;;;6166612;23;20438;-80
2021/01/18 01:56:05;;;;;;;24.10;14.00;;;3.00;99.90;;;;;;6167154;23;20429;-80
2021/01/18 01:58:33;;;;;;;25.23;14.57;;;3.10;99.90;;;;;;6204283;23;20484;-80
2021/01/18 02:01:01;;;;;;;23.53;14.50;;;3.00;99.90;;;;;;6168943;23;20415;-80
2021/01/18 02:03:38;;;;;;;27.30;14.75;;;3.10;99.90;;;;;;6203555;23;20392;-80
2021/01/18 02:06:05;;;;;;;24.80;13.20;;;3.20;99.90;;;;;;6168898;23;20184;-80
2021/01/18 02:08:34;;;;;;;22.40;13.77;;;3.20;99.90;;;;;;6171737;23;20573;-79
2021/01/18 02:11:03;;;;;;;23.90;14.87;;;3.20;99.90;;;;;;6162804;23;20751;-79
2021/01/18 02:13:41;;;;;;;25.60;14.30;;;3.20;99.90;;;;;;6198642;23;20446;-79
2021/01/18 02:16:18;;;;;;;21.40;14.47;;;3.30;99.90;;;;;;6163443;23;20412;-80
2021/01/18 02:18:55;;;;;;;30.80;15.40;;;3.30;99.90;;;;;;6162587;23;20471;-80
2021/01/18 02:22:05;;;;;;;24.57;13.97;;;3.30;99.90;;;;;;6163230;23;20417;-80
2021/01/18 02:25:12;;;;;;;21.40;12.87;;;3.30;99.90;;;;;;6163141;23;20415;-80
2021/01/18 02:28:07;;;;;;;20.97;12.60;;;3.30;99.90;;;;;;6199435;23;20423;-80
2021/01/18 02:31:18;;;;;;;22.87;12.77;;;3.20;99.90;;;;;;6163400;23;20415;-80
2021/01/18 02:34:10;;;;;;;21.30;12.30;;;3.30;99.90;;;;;;6097176;23;20450;-80
2021/01/18 02:36:47;;;;;;;20.37;11.87;;;3.30;99.90;;;;;;6197201;23;20434;-80
2021/01/18 02:39:26;;;;;;;24.73;12.40;;;3.30;99.90;;;;;;6199427;23;20418;-80
2021/01/18 02:41:59;;;;;;;17.80;12.90;;;3.30;99.90;;;;;;6199681;23;20413;-80
2021/01/18 02:44:28;;;;;;;21.70;13.80;;;3.30;99.90;;;;;;6162998;23;20422;-80
2021/01/18 02:46:55;;;;;;;22.80;13.93;;;3.30;99.90;;;;;;6163832;23;20477;-80
2021/01/18 02:49:23;;;;;;;27.43;13.63;;;3.30;99.90;;;;;;6162252;23;20466;-80
2021/01/18 02:51:55;;;;;;;23.33;13.97;;;3.30;99.90;;;;;;6200016;23;20906;-80
2021/01/18 02:54:23;;;;;;;26.57;16.10;;;3.30;99.90;;;;;;6163173;23;20408;-80
2021/01/18 02:56:52;;;;;;;26.70;16.50;;;3.30;99.90;;;;;;6163272;23;20941;-80
2021/01/18 02:59:20;;;;;;;26.87;16.57;;;3.30;99.90;;;;;;6163757;23;20497;-80
2021/01/18 03:02:14;;;;;;;26.27;16.10;;;3.40;99.90;;;;;;6163741;23;20423;-80
2021/01/18 03:05:03;;;;;;;27.33;15.77;;;3.40;99.90;;;;;;6163742;23;20439;-80
2021/01/18 03:07:42;;;;;;;27.00;15.10;;;3.40;99.90;;;;;;6164413;23;20451;-80
2021/01/18 03:10:18;;;;;;;30.93;15.80;;;3.40;99.90;;;;;;6163994;23;20466;-80
2021/01/18 03:12:49;;;;;;;24.70;15.10;;;3.40;99.90;;;;;;6200549;23;20901;-80
2021/01/18 03:15:19;;;;;;;30.40;15.13;;;3.40;99.90;;;;;;6164183;23;20427;-80
2021/01/18 03:17:48;;;;;;;25.43;13.83;;;3.40;99.90;;;;;;6164757;23;20412;-80
2021/01/18 03:20:15;;;;;;;25.80;12.40;;;3.40;99.90;;;;;;6164162;23;20439;-80
2021/01/18 03:22:44;;;;;;;28.43;13.80;;;3.50;99.90;;;;;;6163857;23;20412;-80
2021/01/18 03:25:11;;;;;;;24.57;13.90;;;3.50;99.90;;;;;;6164356;23;20474;-80
2021/01/18 03:27:50;;;;;;;23.00;14.20;;;3.50;99.90;;;;;;6163716;23;20419;-80
2021/01/18 03:30:20;;;;;;;25.00;14.57;;;3.50;99.90;;;;;;6199283;23;20426;-80
2021/01/18 03:32:48;;;;;;;24.47;14.60;;;3.50;99.90;;;;;;6162548;23;20435;-80
2021/01/18 03:35:17;;;;;;;30.13;15.30;;;3.60;99.90;;;;;;6199800;23;20419;-80
2021/01/18 03:37:51;;;;;;;34.80;15.20;;;3.50;99.90;;;;;;6163358;23;20481;-80
2021/01/18 03:40:19;;;;;;;26.20;15.33;;;3.50;99.90;;;;;;6162878;23;20488;-80
2021/01/18 03:42:53;;;;;;;29.63;15.23;;;3.50;99.90;;;;;;6162884;23;20416;-80
2021/01/18 03:45:20;;;;;;;22.70;13.57;;;3.50;99.90;;;;;;6162472;23;20415;-80
2021/01/18 03:47:47;;;;;;;27.03;15.27;;;3.50;99.90;;;;;;6162380;23;20434;-80
2021/01/18 03:50:16;;;;;;;27.73;13.20;;;3.60;99.90;;;;;;6200011;23;20511;-80
2021/01/18 03:52:47;;;;;;;21.63;13.13;;;3.50;99.90;;;;;;6162975;23;20435;-80
2021/01/18 03:55:15;;;;;;;31.13;12.90;;;3.50;99.90;;;;;;6163261;23;20731;-80
2021/01/18 03:57:46;;;;;;;21.53;14.23;;;3.60;99.90;;;;;;6164737;23;20418;-80
2021/01/18 04:00:15;;;;;;;22.50;10.83;;;3.60;99.90;;;;;;6165111;23;20485;-80
2021/01/18 04:02:45;;;;;;;19.33;11.80;;;3.60;99.90;;;;;;6164745;23;20418;-80
2021/01/18 04:05:16;;;;;;;22.90;12.40;;;3.60;99.90;;;;;;6165030;23;20404;-80
2021/01/18 04:07:44;;;;;;;29.20;13.30;;;3.60;99.90;;;;;;6165611;23;20486;-80
2021/01/18 04:10:16;;;;;;;26.47;13.20;;;3.60;99.90;;;;;;6165348;23;20530;-80
2021/01/18 04:12:46;;;;;;;22.23;11.87;;;3.60;99.90;;;;;;6165952;23;20441;-80
2021/01/18 04:15:15;;;;;;;22.17;12.37;;;3.60;99.90;;;;;;6166358;23;20483;-80
2021/01/18 04:17:43;;;;;;;25.47;12.50;;;3.60;99.90;;;;;;6164940;23;20426;-80
2021/01/18 04:20:11;;;;;;;21.60;11.50;;;3.60;99.90;;;;;;6165314;23;20431;-80
2021/01/18 04:22:46;;;;;;;21.00;10.87;;;3.60;99.90;;;;;;6166289;23;20420;-80
2021/01/18 04:25:22;;;;;;;24.27;11.07;;;3.60;99.90;;;;;;6165908;23;20742;-80
2021/01/18 04:27:51;;;;;;;29.30;11.03;;;3.50;99.90;;;;;;6202789;23;20392;-80
2021/01/18 04:30:19;;;;;;;28.97;12.23;;;3.50;99.90;;;;;;6202304;23;20434;-80
2021/01/18 04:32:54;;;;;;;20.63;10.47;;;3.50;99.90;;;;;;6166170;23;20423;-80
2021/01/18 04:35:22;;;;;;;22.00;12.53;;;3.50;99.90;;;;;;6165995;23;20415;-80
2021/01/18 04:37:49;;;;;;;29.00;13.43;;;3.50;99.90;;;;;;6166486;23;20442;-80
2021/01/18 04:40:22;;;;;;;19.37;12.73;;;3.50;99.90;;;;;;6202561;23;20426;-80
2021/01/18 04:42:49;;;;;;;22.87;12.37;;;3.50;99.90;;;;;;6167817;23;20410;-80
2021/01/18 04:45:18;;;;;;;20.67;11.97;;;3.50;99.90;;;;;;6168300;23;20894;-80
2021/01/18 04:47:46;;;;;;;29.47;12.53;;;3.40;99.90;;;;;;6169903;23;20807;-80
2021/01/18 04:50:16;;;;;;;19.13;12.20;;;3.50;99.90;;;;;;6210506;23;20910;-80
2021/01/18 04:52:50;;;;;;;22.20;11.90;;;3.50;99.90;;;;;;6165939;23;20442;-80
2021/01/18 04:55:29;;;;;;;18.27;10.60;;;3.50;99.90;;;;;;6165883;23;20779;-80
2021/01/18 04:58:08;;;;;;;20.07;10.67;;;3.40;99.90;;;;;;6166584;23;20414;-80
2021/01/18 05:00:40;;;;;;;21.70;11.30;;;3.40;99.90;;;;;;6166789;23;20423;-82
2021/01/18 05:03:09;;;;;;;20.50;11.20;;;3.40;99.90;;;;;;6166098;23;20435;-80
2021/01/18 05:06:20;;;;;;;18.57;10.70;;;3.50;99.90;;;;;;6164624;23;20420;-80
2021/01/18 05:09:24;;;;;;;20.50;9.90;;;3.40;99.90;;;;;;6164010;23;20435;-80
2021/01/18 05:11:52;;;;;;;22.40;10.60;;;3.40;99.90;;;;;;6201267;23;20385;-80
2021/01/18 05:14:20;;;;;;;19.60;10.37;;;3.40;99.90;;;;;;6165053;23;20926;-80
2021/01/18 05:16:52;;;;;;;15.37;9.30;;;3.40;99.90;;;;;;6164264;23;20496;-80
2021/01/18 05:19:21;;;;;;;20.57;10.13;;;3.50;99.90;;;;;;6164440;23;20443;-80
2021/01/18 05:21:50;;;;;;;16.23;9.50;;;3.40;99.90;;;;;;6164936;23;20451;-80
2021/01/18 05:24:18;;;;;;;23.43;10.60;;;3.40;99.90;;;;;;6200897;23;20732;-80
2021/01/18 05:27:03;;;;;;;22.23;10.63;;;3.40;99.90;;;;;;6164498;23;20415;-80
2021/01/18 05:29:33;;;;;;;18.70;9.37;;;3.40;99.90;;;;;;6164187;23;20537;-80
2021/01/18 05:32:00;;;;;;;20.80;9.97;;;3.40;99.90;;;;;;6201104;23;20411;-80
2021/01/18 05:34:29;;;;;;;26.80;10.90;;;3.40;99.90;;;;;;6200650;23;20511;-80
2021/01/18 05:36:56;;;;;;;20.40;11.10;;;3.40;99.90;;;;;;6164074;23;20442;-80
2021/01/18 05:39:25;;;;;;;20.10;11.33;;;3.50;99.90;;;;;;6164334;23;20196;-80
2021/01/18 05:41:54;;;;;;;26.77;12.47;;;3.50;99.90;;;;;;6200984;23;20711;-80
2021/01/18 05:44:32;;;;;;;23.47;13.07;;;3.50;99.90;;;;;;6164601;23;20426;-80
2021/01/18 05:47:03;;;;;;;31.77;15.17;;;3.50;99.90;;;;;;6164337;23;20415;-80
2021/01/18 05:49:40;;;;;;;31.03;14.43;;;3.50;99.90;;;;;;6164112;23;20779;-80
2021/01/18 05:52:24;;;;;;;28.60;15.23;;;3.40;99.90;;;;;;6163885;23;20415;-80
2021/01/18 05:54:52;;;;;;;30.77;18.50;;;3.50;99.90;;;;;;6164331;23;20411;-80
2021/01/18 05:57:19;;;;;;;33.53;19.70;;;3.50;99.90;;;;;;6200546;23;20427;-80
2021/01/18 05:59:48;;;;;;;40.27;19.20;;;3.50;99.90;;;;;;6164636;23;20813;-80
2021/01/18 06:02:23;;;;;;;36.00;17.13;;;3.50;99.90;;;;;;6164032;23;20415;-80
2021/01/18 06:04:52;;;;;;;33.23;19.23;;;3.50;99.90;;;;;;6165886;23;20414;-80
2021/01/18 06:07:23;;;;;;;35.60;19.60;;;3.40;99.90;;;;;;6200319;23;20875;-80
2021/01/18 06:09:51;;;;;;;39.80;20.23;;;3.50;99.90;;;;;;6162630;23;20440;-80
2021/01/18 06:12:24;;;;;;;36.40;20.53;;;3.50;99.90;;;;;;6164034;23;20419;-80
2021/01/18 06:15:09;;;;;;;37.23;19.80;;;3.50;99.90;;;;;;6164499;23;20895;-80
2021/01/18 06:17:38;;;;;;;38.27;20.97;;;3.50;99.90;;;;;;6164498;23;20418;-80
2021/01/18 06:20:07;;;;;;;43.70;22.40;;;3.50;99.90;;;;;;6164290;23;20477;-80
2021/01/18 06:22:35;;;;;;;36.57;23.13;;;3.50;99.90;;;;;;6164921;23;20419;-80
2021/01/18 06:25:11;;;;;;;48.10;21.20;;;3.50;99.90;;;;;;6200785;23;20400;-80
2021/01/18 06:27:39;;;;;;;37.57;22.30;;;3.50;99.90;;;;;;6200781;23;20384;-80
2021/01/18 06:30:21;;;;;;;42.67;22.07;;;3.60;99.90;;;;;;6165363;23;20435;-80
2021/01/18 06:32:53;;;;;;;36.60;21.80;;;3.50;99.90;;;;;;6165249;23;20431;-80
2021/01/18 06:35:23;;;;;;;44.87;25.53;;;3.50;99.90;;;;;;6166162;23;20415;-80
2021/01/18 06:37:58;;;;;;;38.30;21.97;;;3.60;99.90;;;;;;6165928;23;20423;-80
2021/01/18 06:40:28;;;;;;;40.33;22.50;;;3.60;99.90;;;;;;6201577;23;20390;-80
2021/01/18 06:42:58;;;;;;;43.80;23.30;;;3.60;99.90;;;;;;6164508;23;20760;-80
2021/01/18 06:45:37;;;;;;;50.60;26.60;;;3.60;99.90;;;;;;6200214;23;20709;-80
2021/01/18 06:48:16;;;;;;;36.27;23.93;;;3.60;99.90;;;;;;6164498;23;20425;-82
2021/01/18 06:50:43;;;;;;;43.50;26.03;;;3.60;99.90;;;;;;6163737;23;20415;-80
2021/01/18 06:53:23;;;;;;;49.93;25.77;;;3.60;99.90;;;;;;6164098;23;20536;-80
2021/01/18 06:56:14;;;;;;;43.30;26.13;;;3.60;99.90;;;;;;6200238;23;20383;-80
2021/01/18 06:58:52;;;;;;;38.17;25.40;;;3.60;99.90;;;;;;6163846;23;20446;-80
2021/01/18 07:01:29;;;;;;;35.73;21.73;;;3.60;99.90;;;;;;6164659;23;20412;-80
2021/01/18 07:04:05;;;;;;;37.40;23.50;;;3.60;99.90;;;;;;6200976;23;20403;-80
2021/01/18 07:06:35;;;;;;;38.23;22.50;;;3.60;99.90;;;;;;6164528;23;20411;-80
2021/01/18 07:09:05;;;;;;;34.40;22.70;;;3.60;99.90;;;;;;6164174;23;20520;-80
2021/01/18 07:12:01;;;;;;;37.97;22.30;;;3.60;99.90;;;;;;6164540;23;20841;-80
2021/01/18 07:14:30;;;;;;;34.27;21.37;;;3.60;99.90;;;;;;6202663;23;20416;-80
2021/01/18 07:17:04;;;;;;;33.97;18.90;;;3.70;99.90;;;;;;6165241;23;20403;-80
2021/01/18 07:19:39;;;;;;;29.67;19.33;;;3.70;99.90;;;;;;6165276;23;20833;-80
2021/01/18 07:22:38;;;;;;;25.57;18.07;;;3.70;99.90;;;;;;6165266;23;20415;-80
2021/01/18 07:25:35;;;;;;;26.40;18.90;;;3.70;99.90;;;;;;6166100;23;20428;-80
2021/01/18 07:28:04;;;;;;;26.33;17.60;;;3.70;99.90;;;;;;6203777;23;20383;-80
2021/01/18 07:30:32;;;;;;;30.30;18.57;;;3.70;99.90;;;;;;6203959;23;20445;-80
2021/01/18 07:33:08;;;;;;;29.20;18.87;;;3.70;99.90;;;;;;6208577;23;20431;-80
2021/01/18 07:35:36;;;;;;;26.43;17.27;;;3.70;99.90;;;;;;6166451;23;20409;-80
2021/01/18 07:38:11;;;;;;;28.50;17.63;;;3.70;99.90;;;;;;6166201;23;20431;-80
2021/01/18 07:40:39;;;;;;;29.17;15.90;;;3.70;99.90;;;;;;6166516;23;20418;-80
2021/01/18 07:43:06;;;;;;;20.37;16.10;;;3.70;99.90;;;;;;6202594;23;20398;-79
2021/01/18 07:45:33;;;;;;;25.27;17.50;;;3.70;99.90;;;;;;6166866;23;20434;-79
2021/01/18 07:48:06;;;;;;;26.07;16.27;;;3.80;99.90;;;;;;6166859;23;20411;-79
2021/01/18 07:50:36;;;;;;;24.27;14.90;;;3.80;99.90;;;;;;6166574;23;20431;-79
2021/01/18 07:53:05;;;;;;;27.73;17.00;;;3.80;99.90;;;;;;6166414;23;20449;-79
2021/01/18 07:55:33;;;;;;;27.77;15.37;;;3.80;99.90;;;;;;6166412;23;20415;-79
2021/01/18 07:58:15;;;;;;;23.67;17.37;;;3.80;99.90;;;;;;6203099;23;20434;-79
2021/01/18 08:00:43;;;;;;;28.00;18.00;;;3.80;99.90;;;;;;6166174;23;20408;-79
2021/01/18 08:03:26;;;;;;;29.40;17.80;;;3.80;99.90;;;;;;6202945;23;20404;-81
2021/01/18 08:06:05;;;;;;;27.50;18.27;;;3.80;99.90;;;;;;6166570;23;20907;-80
2021/01/18 08:08:34;;;;;;;29.30;18.27;;;3.80;99.90;;;;;;6166230;23;20505;-80
2021/01/18 08:11:03;;;;;;;29.23;19.47;;;3.90;99.90;;;;;;6165854;23;20485;-80
2021/01/18 08:13:53;;;;;;;32.37;19.80;;;3.90;99.90;;;;;;6201949;23;20426;-79
2021/01/18 08:16:24;;;;;;;29.00;18.20;;;3.90;99.90;;;;;;6165507;23;20859;-79
2021/01/18 08:19:00;;;;;;;29.57;18.33;;;3.90;99.90;;;;;;6165021;23;20443;-80
2021/01/18 08:21:47;;;;;;;23.87;19.87;;;3.90;99.90;;;;;;6165603;23;20418;-80
2021/01/18 08:24:52;;;;;;;29.63;21.07;;;3.90;99.90;;;;;;6165900;23;20404;-79
2021/01/18 08:27:52;;;;;;;30.70;19.50;;;4.00;99.90;;;;;;6164952;23;20411;-79
2021/01/18 08:30:28;;;;;;;32.60;22.40;;;4.00;99.90;;;;;;6164611;23;20963;-79
2021/01/18 08:33:07;;;;;;;32.23;21.37;;;4.00;99.90;;;;;;6165068;23;20412;-79
2021/01/18 08:35:42;;;;;;;36.10;23.27;;;4.00;99.90;;;;;;6165303;23;20415;-79
2021/01/18 08:38:22;;;;;;;29.95;19.67;;;4.00;99.90;;;;;;6164093;23;20419;-79
2021/01/18 08:40:51;;;;;;;31.73;21.00;;;4.10;99.90;;;;;;6202185;23;20163;-79
2021/01/18 08:43:19;;;;;;;32.03;20.80;;;4.20;99.90;;;;;;6201336;23;20426;-79
2021/01/18 08:45:48;;;;;;;33.17;22.37;;;4.20;99.90;;;;;;6165053;23;20403;-79
2021/01/18 08:48:21;;;;;;;33.87;20.97;;;4.20;99.90;;;;;;6202217;23;20491;-79
2021/01/18 08:50:52;;;;;;;26.40;20.50;;;4.20;99.90;;;;;;6164934;23;20414;-79
2021/01/18 08:53:30;;;;;;;31.43;21.33;;;4.10;99.90;;;;;;6164898;23;20519;-79
2021/01/18 08:56:02;;;;;;;25.83;21.07;;;4.20;99.90;;;;;;6202225;23;20707;-79
2021/01/18 08:58:41;;;;;;;28.40;22.20;;;4.20;99.90;;;;;;6202295;23;20443;-79
2021/01/18 09:01:11;;;;;;;28.60;21.50;;;4.20;99.90;;;;;;6164766;23;20408;-79
2021/01/18 09:03:39;;;;;;;34.33;21.70;;;4.20;99.90;;;;;;6202247;23;20388;-79
2021/01/18 09:06:07;;;;;;;31.10;21.70;;;4.30;99.90;;;;;;6165074;23;20483;-79
2021/01/18 09:08:35;;;;;;;30.57;20.77;;;4.30;99.90;;;;;;6202001;23;20430;-79
2021/01/18 09:11:05;;;;;;;33.13;22.17;;;4.30;99.90;;;;;;6166516;23;20438;-79
2021/01/18 09:13:34;;;;;;;31.10;19.50;;;4.30;99.90;;;;;;6202931;23;20447;-79
2021/01/18 09:16:05;;;;;;;34.10;20.70;;;4.30;99.90;;;;;;6166594;23;20411;-79
2021/01/18 09:18:34;;;;;;;32.20;21.00;;;4.40;99.90;;;;;;6167505;23;20435;-80
2021/01/18 09:21:02;;;;;;;28.50;21.83;;;4.40;99.90;;;;;;6167949;23;20730;-79
2021/01/18 09:23:30;;;;;;;29.53;22.10;;;4.40;99.90;;;;;;6204749;23;20403;-79
2021/01/18 09:26:00;;;;;;;30.33;21.43;;;4.40;99.90;;;;;;6202856;23;20408;-80
2021/01/18 09:28:28;;;;;;;28.60;21.73;;;4.50;99.90;;;;;;6201778;23;20481;-80
2021/01/18 09:30:55;;;;;;;31.27;24.23;;;4.50;99.90;;;;;;6201224;23;20752;-80
2021/01/18 09:33:27;;;;;;;30.00;22.43;;;4.50;99.90;;;;;;6201191;23;20463;-80
2021/01/18 09:35:54;;;;;;;29.60;22.50;;;4.50;99.90;;;;;;6165420;23;20404;-80
2021/01/18 09:38:22;;;;;;;35.23;23.40;;;4.50;99.90;;;;;;6165009;23;20431;-80
2021/01/18 09:40:49;;;;;;;36.30;25.33;;;4.60;99.90;;;;;;6202232;23;20386;-80
2021/01/18 09:43:21;;;;;;;35.80;23.50;;;4.60;99.90;;;;;;6165647;23;20738;-80
2021/01/18 09:45:54;;;;;;;38.87;25.10;;;4.60;99.90;;;;;;6166154;23;20485;-80
2021/01/18 09:48:24;;;;;;;36.80;27.00;;;4.60;99.90;;;;;;6201909;23;20423;-80
2021/01/18 09:51:03;;;;;;;38.90;26.87;;;4.60;99.90;;;;;;6167581;23;20528;-79
2021/01/18 09:53:31;;;;;;;39.10;26.97;;;4.70;99.90;;;;;;6165337;23;20466;-79
2021/01/18 09:56:01;;;;;;;40.67;27.63;;;4.70;99.90;;;;;;6201784;23;20456;-79
2021/01/18 09:58:37;;;;;;;39.80;25.97;;;4.70;99.90;;;;;;6165452;23;20499;-79
2021/01/18 10:01:09;;;;;;;40.47;28.40;;;4.80;99.90;;;;;;6164871;23;20411;-79
2021/01/18 10:03:39;;;;;;;39.40;29.17;;;4.80;99.90;;;;;;6164762;23;20412;-79
2021/01/18 10:06:08;;;;;;;39.23;28.53;;;4.80;99.90;;;;;;6164807;23;20411;-79
2021/01/18 10:08:36;;;;;;;39.87;27.97;;;4.80;99.90;;;;;;6165991;23;20447;-79
2021/01/18 10:11:04;;;;;;;43.67;28.90;;;4.80;99.90;;;;;;6167653;23;20911;-79
2021/01/18 10:13:32;;;;;;;42.77;28.90;;;4.90;99.90;;;;;;6171336;23;20428;-79
2021/01/18 10:16:08;;;;;;;37.73;27.47;;;4.90;99.90;;;;;;6173004;23;20870;-79
2021/01/18 10:18:38;;;;;;;39.40;28.00;;;4.90;99.90;;;;;;6204708;23;20426;-79
2021/01/18 10:21:07;;;;;;;46.40;28.67;;;4.90;99.90;;;;;;6208819;23;20450;-79
2021/01/18 10:23:35;;;;;;;44.47;28.17;;;4.90;99.90;;;;;;6168403;23;20419;-79
2021/01/18 10:26:24;;;;;;;34.70;25.33;;;4.90;99.90;;;;;;6167336;23;20965;-79
2021/01/18 10:28:57;;;;;;;34.93;25.77;;;5.00;99.90;;;;;;6167109;23;20436;-79
2021/01/18 10:31:27;;;;;;;44.03;26.47;;;5.00;99.90;;;;;;6166440;23;20419;-79
2021/01/18 10:34:15;;;;;;;37.13;26.13;;;5.00;99.90;;;;;;6167308;23;20497;-79
2021/01/18 10:36:44;;;;;;;33.57;25.97;;;5.00;99.90;;;;;;6169239;23;20439;-80
2021/01/18 10:39:29;;;;;;;39.53;26.33;;;5.00;99.90;;;;;;6170894;23;20467;-80
2021/01/18 10:42:13;;;;;;;34.80;25.80;;;5.10;99.90;;;;;;6172460;23;20407;-80
2021/01/18 10:44:49;;;;;;;35.33;26.00;;;5.10;99.90;;;;;;6173145;23;20419;-80
2021/01/18 10:47:20;;;;;;;34.57;25.33;;;5.10;99.90;;;;;;6173654;23;20403;-80
2021/01/18 10:49:52;;;;;;;35.27;26.47;;;5.10;99.90;;;;;;6173347;23;20443;-80
2021/01/18 10:52:20;;;;;;;39.93;28.53;;;5.10;99.90;;;;;;6170372;23;20407;-80
2021/01/18 10:54:59;;;;;;;33.17;25.57;;;5.10;99.90;;;;;;6204516;23;20428;-80
2021/01/18 10:57:45;;;;;;;35.87;27.17;;;5.10;99.90;;;;;;6168656;23;20411;-80
2021/01/18 11:00:15;;;;;;;40.10;26.30;;;5.20;99.90;;;;;;6167945;23;20471;-80
2021/01/18 11:02:52;;;;;;;34.03;25.40;;;5.20;99.90;;;;;;6167630;23;20417;-80
2021/01/18 11:05:31;;;;;;;34.37;26.17;;;5.20;99.90;;;;;;6194538;23;20395;-80
2021/01/18 11:08:01;;;;;;;34.00;25.70;;;5.20;99.90;;;;;;6203709;23;20866;-80
2021/01/18 11:10:29;;;;;;;34.30;27.10;;;5.20;99.90;;;;;;6168378;23;20423;-80
2021/01/18 11:13:03;;;;;;;36.23;26.30;;;5.30;99.90;;;;;;6168596;23;20518;-80
2021/01/18 11:15:33;;;;;;;35.30;26.60;;;5.20;99.90;;;;;;6168637;23;20412;-80
2021/01/18 11:18:04;;;;;;;37.07;29.03;;;5.30;99.90;;;;;;6195844;23;20399;-80
2021/01/18 11:20:34;;;;;;;36.17;25.40;;;5.30;99.90;;;;;;6168744;23;20408;-80
2021/01/18 11:23:01;;;;;;;38.60;28.83;;;5.30;99.90;;;;;;6204806;23;20450;-80
2021/01/18 11:25:31;;;;;;;35.47;25.13;;;5.30;99.90;;;;;;6169161;23;20169;-80
2021/01/18 11:28:09;;;;;;;38.77;28.33;;;5.30;99.90;;;;;;6168650;23;20415;-80
2021/01/18 11:30:37;;;;;;;39.30;26.47;;;5.40;99.90;;;;;;6203793;23;20411;-80
2021/01/18 11:33:06;;;;;;;36.47;26.40;;;5.40;99.90;;;;;;6166096;23;20481;-80
2021/01/18 11:35:34;;;;;;;37.47;25.70;;;5.40;99.90;;;;;;6205613;23;20168;-80
2021/01/18 11:38:02;;;;;;;37.23;27.67;;;5.50;99.90;;;;;;6145943;23;20424;-80
2021/01/18 11:40:30;;;;;;;34.17;26.60;;;5.40;99.90;;;;;;6167927;23;21001;-80
2021/01/18 11:43:00;;;;;;;31.17;23.80;;;5.40;99.90;;;;;;6204854;23;20404;-80
2021/01/18 11:45:28;;;;;;;31.13;24.40;;;5.40;99.90;;;;;;6202248;23;20387;-80
2021/01/18 11:47:57;;;;;;;39.40;29.07;;;5.50;99.90;;;;;;6166644;23;20433;-80
2021/01/18 11:50:25;;;;;;;34.93;24.93;;;5.50;99.90;;;;;;6168574;23;20469;-80
2021/01/18 11:52:54;;;;;;;29.80;23.00;;;5.50;99.90;;;;;;6169139;23;20447;-80
2021/01/18 11:55:22;;;;;;;30.37;23.53;;;5.50;99.90;;;;;;6168647;23;20446;-80
2021/01/18 11:57:50;;;;;;;37.10;23.43;;;5.50;99.90;;;;;;6169060;23;20490;-80
2021/01/18 12:00:21;;;;;;;25.20;21.60;;;5.50;99.90;;;;;;6205251;23;20427;-80
2021/01/18 12:02:52;;;;;;;29.00;23.37;;;5.50;99.90;;;;;;6169214;23;20407;-80
2021/01/18 12:05:22;;;;;;;27.10;21.90;;;5.50;99.90;;;;;;6205755;23;20411;-80
2021/01/18 12:07:50;;;;;;;30.00;21.03;;;5.50;99.90;;;;;;6169748;23;20742;-80
2021/01/18 12:10:18;;;;;;;27.70;22.13;;;5.60;99.90;;;;;;6204679;23;20423;-80
2021/01/18 12:12:45;;;;;;;27.00;22.17;;;5.60;99.90;;;;;;6168762;23;20719;-80
2021/01/18 12:15:13;;;;;;;28.47;21.00;;;5.60;99.90;;;;;;6168908;23;20439;-80
2021/01/18 12:17:44;;;;;;;26.13;20.37;;;5.60;99.90;;;;;;6171146;23;20863;-80
2021/01/18 12:20:14;;;;;;;32.80;20.93;;;5.60;99.90;;;;;;6171161;23;20514;-80
2021/01/18 12:22:41;;;;;;;25.50;18.93;;;5.60;99.90;;;;;;6171319;23;20414;-80
2021/01/18 12:25:11;;;;;;;29.77;20.97;;;5.60;99.90;;;;;;6170085;23;20461;-80
2021/01/18 12:27:39;;;;;;;27.87;19.07;;;5.60;99.90;;;;;;6171452;23;20443;-80
2021/01/18 12:30:08;;;;;;;25.80;19.07;;;5.70;99.90;;;;;;6169127;23;20443;-80
2021/01/18 12:32:36;;;;;;;26.03;19.00;;;5.70;99.90;;;;;;6205556;23;20939;-80
2021/01/18 12:35:04;;;;;;;32.47;20.30;;;5.70;99.90;;;;;;6205454;23;20451;-80
2021/01/18 12:37:32;;;;;;;26.33;19.40;;;5.70;99.90;;;;;;6168033;23;20415;-80
2021/01/18 12:39:59;;;;;;;23.93;18.57;;;5.70;99.90;;;;;;6168587;23;20463;-80
2021/01/18 12:42:27;;;;;;;23.10;17.90;;;5.70;99.90;;;;;;6168761;23;20415;-80
2021/01/18 12:44:54;;;;;;;21.90;18.40;;;5.70;99.90;;;;;;6205717;23;20780;-80
2021/01/18 12:47:22;;;;;;;25.50;18.50;;;5.70;99.90;;;;;;6169376;23;20415;-80
2021/01/18 12:49:50;;;;;;;21.57;17.73;;;5.70;99.90;;;;;;6170126;23;20459;-80
2021/01/18 12:52:17;;;;;;;27.10;18.60;;;5.70;99.90;;;;;;6169601;23;20422;-80
2021/01/18 12:54:47;;;;;;;22.43;16.07;;;5.70;99.90;;;;;;6169661;23;20442;-80
2021/01/18 12:57:14;;;;;;;22.50;16.87;;;5.70;99.90;;;;;;6174197;23;20391;-79
2021/01/18 12:59:42;;;;;;;19.03;14.80;;;5.70;99.90;;;;;;6204988;23;20416;-80
2021/01/18 13:02:11;;;;;;;18.37;14.33;;;5.70;99.90;;;;;;6168221;23;20412;-80
2021/01/18 13:04:39;;;;;;;21.97;14.00;;;5.70;99.90;;;;;;6168656;23;20726;-80